createdAt,value
2024-02-02T00:00:30.398Z,90.20
2024-02-02T00:01:02.333Z,89.75
2024-02-02T00:01:34.725Z,89.84
2024-02-02T00:02:07.260Z,90.27
2024-02-02T00:02:40.343Z,90.14
2024-02-02T00:03:12.296Z,90.26
2024-02-02T00:03:44.327Z,90.59
2024-02-02T00:04:16.270Z,90.47
2024-02-02T00:04:48.157Z,90.99
2024-02-02T00:05:19.936Z,90.92
2024-02-02T00:05:51.782Z,91.13
2024-02-02T00:06:23.791Z,91.17
2024-02-02T00:06:55.849Z,91.32
2024-02-02T00:07:27.879Z,91.60
2024-02-02T00:07:59.787Z,92.05
2024-02-02T00:08:31.549Z,91.88
2024-02-02T00:09:07.210Z,92.11
2024-02-02T00:09:39.069Z,91.88
2024-02-02T00:10:10.901Z,92.00
2024-02-02T00:10:42.786Z,92.67
2024-02-02T00:11:14.603Z,93.02
2024-02-02T00:11:47.477Z,92.54
2024-02-02T00:12:19.402Z,92.47
2024-02-02T00:12:51.282Z,92.94
2024-02-02T00:13:23.047Z,92.43
2024-02-02T00:13:54.992Z,93.10
2024-02-02T00:14:26.831Z,93.43
2024-02-02T00:14:58.734Z,93.29
2024-02-02T00:15:30.660Z,93.15
2024-02-02T00:16:02.488Z,93.72
2024-02-02T00:16:34.235Z,93.15
2024-02-02T00:17:06.241Z,93.30
2024-02-02T00:17:37.997Z,93.71
2024-02-02T00:18:10.201Z,93.29
2024-02-02T00:18:42.218Z,93.40
2024-02-02T00:19:14.228Z,93.36
2024-02-02T00:19:46.201Z,93.77
2024-02-02T00:20:18.414Z,93.51
2024-02-02T00:20:50.313Z,93.59
2024-02-02T00:21:22.250Z,93.22
2024-02-02T00:21:54.314Z,93.82
2024-02-02T00:22:26.209Z,94.06
2024-02-02T00:22:57.993Z,94.29
2024-02-02T00:23:29.854Z,94.18
2024-02-02T00:24:01.706Z,93.66
2024-02-02T00:24:33.720Z,94.08
2024-02-02T00:25:05.709Z,93.67
2024-02-02T00:25:37.806Z,93.57
2024-02-02T00:26:09.631Z,94.11
2024-02-02T00:26:41.466Z,94.28
2024-02-02T00:27:13.330Z,94.44
2024-02-02T00:27:45.382Z,94.08
2024-02-02T00:28:17.152Z,94.35
2024-02-02T00:28:49.012Z,94.04
2024-02-02T00:29:20.898Z,94.78
2024-02-02T00:29:52.746Z,94.31
2024-02-02T00:30:24.756Z,94.38
2024-02-02T00:30:56.577Z,94.61
2024-02-02T00:31:28.325Z,94.76
2024-02-02T00:32:00.123Z,94.08
2024-02-02T00:32:32.023Z,94.46
2024-02-02T00:33:04.299Z,94.05
2024-02-02T00:33:36.255Z,94.22
2024-02-02T00:34:08.614Z,94.46
2024-02-02T00:34:41.270Z,94.30
2024-02-02T00:35:15.871Z,94.25
2024-02-02T00:35:47.715Z,94.68
2024-02-02T00:36:19.567Z,94.19
2024-02-02T00:36:51.406Z,94.60
2024-02-02T00:37:23.191Z,94.65
2024-02-02T00:37:55.453Z,94.39
2024-02-02T00:38:27.311Z,94.58
2024-02-02T00:38:59.135Z,94.11
2024-02-02T00:39:31.080Z,94.29
2024-02-02T00:40:02.997Z,94.94
2024-02-02T00:40:34.787Z,94.74
2024-02-02T00:41:06.593Z,94.38
2024-02-02T00:41:38.425Z,94.54
2024-02-02T00:42:10.287Z,94.34
2024-02-02T00:42:43.724Z,94.86
2024-02-02T00:43:15.530Z,94.53
2024-02-02T00:43:47.421Z,94.43
2024-02-02T00:44:19.309Z,94.55
2024-02-02T00:44:51.184Z,94.54
2024-02-02T00:45:23.004Z,94.74
2024-02-02T00:45:54.879Z,94.45
2024-02-02T00:46:26.692Z,94.39
2024-02-02T00:46:58.461Z,94.24
2024-02-02T00:47:30.278Z,93.89
2024-02-02T00:48:02.743Z,94.08
2024-02-02T00:48:35.623Z,93.87
2024-02-02T00:49:07.853Z,94.52
2024-02-02T00:49:40.975Z,94.16
2024-02-02T00:50:13.042Z,94.09
2024-02-02T00:50:44.847Z,94.07
2024-02-02T00:51:16.766Z,93.65
2024-02-02T00:51:48.696Z,93.81
2024-02-02T00:52:20.715Z,94.36
2024-02-02T00:52:52.542Z,93.83
2024-02-02T00:53:24.380Z,93.65
2024-02-02T00:53:56.282Z,94.22
2024-02-02T00:54:28.233Z,93.98
2024-02-02T00:55:01.250Z,93.73
2024-02-02T00:55:33.030Z,94.07
2024-02-02T00:56:05.204Z,94.25
2024-02-02T00:56:37.157Z,93.62
2024-02-02T00:57:09.067Z,93.25
2024-02-02T00:57:40.961Z,93.65
2024-02-02T00:58:12.926Z,93.54
2024-02-02T00:58:44.694Z,94.04
2024-02-02T00:59:16.515Z,93.72
2024-02-02T00:59:49.497Z,93.49
2024-02-02T01:00:21.337Z,93.78
2024-02-02T01:00:53.317Z,93.80
2024-02-02T01:01:25.130Z,93.97
2024-02-02T01:01:56.993Z,93.42
2024-02-02T01:02:28.787Z,93.54
2024-02-02T01:03:00.744Z,93.53
2024-02-02T01:03:35.142Z,93.33
2024-02-02T01:04:07.151Z,93.26
2024-02-02T01:04:39.739Z,93.05
2024-02-02T01:05:11.702Z,92.99
2024-02-02T01:05:43.918Z,92.88
2024-02-02T01:06:16.022Z,93.28
2024-02-02T01:06:48.002Z,93.39
2024-02-02T01:07:19.883Z,92.68
2024-02-02T01:07:51.673Z,92.88
2024-02-02T01:08:23.532Z,92.63
2024-02-02T01:08:55.444Z,92.77
2024-02-02T01:09:27.362Z,92.28
2024-02-02T01:09:59.225Z,91.85
2024-02-02T01:10:31.013Z,91.65
2024-02-02T01:11:03.950Z,91.50
2024-02-02T01:11:35.891Z,91.48
2024-02-02T01:12:07.717Z,91.39
2024-02-02T01:12:40.518Z,90.93
2024-02-02T01:13:14.977Z,90.57
2024-02-02T01:13:46.779Z,90.37
2024-02-02T01:14:18.683Z,90.37
2024-02-02T01:14:50.548Z,90.25
2024-02-02T01:15:22.757Z,89.49
2024-02-02T01:15:54.690Z,89.67
2024-02-02T01:16:26.542Z,89.02
2024-02-02T01:16:58.357Z,89.75
2024-02-02T01:17:30.656Z,89.05
2024-02-02T01:18:04.048Z,89.56
2024-02-02T01:18:36.169Z,89.33
2024-02-02T01:19:08.360Z,89.43
2024-02-02T01:19:40.375Z,89.21
2024-02-02T01:20:15.067Z,88.79
2024-02-02T01:20:47.085Z,88.75
2024-02-02T01:21:19.110Z,88.59
2024-02-02T01:21:51.456Z,88.21
2024-02-02T01:22:23.262Z,88.48
2024-02-02T01:22:55.098Z,88.77
2024-02-02T01:23:27.214Z,88.11
2024-02-02T01:24:00.265Z,88.51
2024-02-02T01:24:32.866Z,88.53
2024-02-02T01:25:04.947Z,88.60
2024-02-02T01:25:36.793Z,88.18
2024-02-02T01:26:08.609Z,88.40
2024-02-02T01:26:40.410Z,88.47
2024-02-02T01:27:12.266Z,88.36
2024-02-02T01:27:44.383Z,88.18
2024-02-02T01:28:16.250Z,88.25
2024-02-02T01:28:48.066Z,88.14
2024-02-02T01:29:19.872Z,88.49
2024-02-02T01:29:51.871Z,88.19
2024-02-02T01:30:24.647Z,88.33
2024-02-02T01:30:56.561Z,88.33
2024-02-02T01:31:28.425Z,88.21
2024-02-02T01:32:00.311Z,87.94
2024-02-02T01:32:32.093Z,88.20
2024-02-02T01:33:04.284Z,88.16
2024-02-02T01:33:36.301Z,88.10
2024-02-02T01:34:08.414Z,87.74
2024-02-02T01:34:40.579Z,87.98
2024-02-02T01:35:12.456Z,87.75
2024-02-02T01:35:44.275Z,87.55
2024-02-02T01:36:16.333Z,88.03
2024-02-02T01:36:48.211Z,87.62
2024-02-02T01:37:20.004Z,87.89
2024-02-02T01:37:51.874Z,87.54
2024-02-02T01:38:24.128Z,87.74
2024-02-02T01:38:56.034Z,87.94
2024-02-02T01:39:27.903Z,88.07
2024-02-02T01:39:59.833Z,87.92
2024-02-02T01:40:31.673Z,87.90
2024-02-02T01:41:03.565Z,87.74
2024-02-02T01:41:35.373Z,87.74
2024-02-02T01:42:07.723Z,87.63
2024-02-02T01:42:39.607Z,86.95
2024-02-02T01:43:11.443Z,87.39
2024-02-02T01:43:43.258Z,87.47
2024-02-02T01:44:15.128Z,87.11
2024-02-02T01:44:46.952Z,87.47
2024-02-02T01:45:18.756Z,87.49
2024-02-02T01:45:52.029Z,87.18
2024-02-02T01:46:23.825Z,87.38
2024-02-02T01:46:55.763Z,87.34
2024-02-02T01:47:27.770Z,86.95
2024-02-02T01:48:00.400Z,87.06
2024-02-02T01:48:32.528Z,87.04
2024-02-02T01:49:04.552Z,86.91
2024-02-02T01:49:36.568Z,87.54
2024-02-02T01:50:09.553Z,87.39
2024-02-02T01:50:41.436Z,86.99
2024-02-02T01:51:13.682Z,87.47
2024-02-02T01:51:45.476Z,87.34
2024-02-02T01:52:17.453Z,86.89
2024-02-02T01:52:49.361Z,87.29
2024-02-02T01:53:21.162Z,86.78
2024-02-02T01:53:53.804Z,87.08
2024-02-02T01:54:25.793Z,87.42
2024-02-02T01:54:58.544Z,87.19
2024-02-02T01:55:30.446Z,87.63
2024-02-02T01:56:02.392Z,87.89
2024-02-02T01:56:34.925Z,87.55
2024-02-02T01:57:06.878Z,87.73
2024-02-02T01:57:39.428Z,87.86
2024-02-02T01:58:11.251Z,87.22
2024-02-02T01:58:43.119Z,86.98
2024-02-02T01:59:15.815Z,87.48
2024-02-02T01:59:48.389Z,87.50
2024-02-02T02:00:20.332Z,87.24
2024-02-02T02:00:52.420Z,87.06
2024-02-02T02:01:26.522Z,87.63
2024-02-02T02:01:58.581Z,87.78
2024-02-02T02:02:30.421Z,87.96
2024-02-02T02:03:02.994Z,87.71
2024-02-02T02:03:35.203Z,88.11
2024-02-02T02:04:07.267Z,87.96
2024-02-02T02:04:41.677Z,88.16
2024-02-02T02:05:13.521Z,88.26
2024-02-02T02:05:45.495Z,88.49
2024-02-02T02:06:17.511Z,88.35
2024-02-02T02:06:49.674Z,88.18
2024-02-02T02:07:21.731Z,87.64
2024-02-02T02:07:53.545Z,88.11
2024-02-02T02:08:25.353Z,88.13
2024-02-02T02:08:57.195Z,88.42
2024-02-02T02:09:29.034Z,87.98
2024-02-02T02:10:01.296Z,87.79
2024-02-02T02:10:33.457Z,87.97
2024-02-02T02:11:07.633Z,87.76
2024-02-02T02:11:39.602Z,87.98
2024-02-02T02:12:11.437Z,87.79
2024-02-02T02:12:43.258Z,87.93
2024-02-02T02:13:15.226Z,88.26
2024-02-02T02:13:47.221Z,88.09
2024-02-02T02:14:19.456Z,87.98
2024-02-02T02:14:51.390Z,88.04
2024-02-02T02:15:24.781Z,88.08
2024-02-02T02:15:56.657Z,88.02
2024-02-02T02:16:28.698Z,87.78
2024-02-02T02:17:00.472Z,87.90
2024-02-02T02:17:32.356Z,88.11
2024-02-02T02:18:04.266Z,88.69
2024-02-02T02:18:42.132Z,88.62
2024-02-02T02:19:19.975Z,88.05
2024-02-02T02:19:51.971Z,88.15
2024-02-02T02:20:26.816Z,88.66
2024-02-02T02:20:59.465Z,88.66
2024-02-02T02:21:31.360Z,88.77
2024-02-02T02:22:03.640Z,88.75
2024-02-02T02:22:35.486Z,88.58
2024-02-02T02:23:09.568Z,88.80
2024-02-02T02:23:41.442Z,88.52
2024-02-02T02:24:13.617Z,88.36
2024-02-02T02:24:45.513Z,88.58
2024-02-02T02:25:17.406Z,88.19
2024-02-02T02:25:49.263Z,88.54
2024-02-02T02:26:21.444Z,88.49
2024-02-02T02:26:53.778Z,88.47
2024-02-02T02:27:25.760Z,88.45
2024-02-02T02:27:57.635Z,88.36
2024-02-02T02:28:29.491Z,88.53
2024-02-02T02:29:01.319Z,88.49
2024-02-02T02:29:33.075Z,87.81
2024-02-02T02:30:05.316Z,88.51
2024-02-02T02:30:37.239Z,88.35
2024-02-02T02:31:18.547Z,88.82
2024-02-02T02:31:56.713Z,89.88
2024-02-02T02:32:28.813Z,89.78
2024-02-02T02:33:00.795Z,89.75
2024-02-02T02:33:32.831Z,89.82
2024-02-02T02:34:04.847Z,89.73
2024-02-02T02:34:37.533Z,89.89
2024-02-02T02:35:09.856Z,89.96
2024-02-02T02:35:41.761Z,89.45
2024-02-02T02:36:17.485Z,89.30
2024-02-02T02:36:49.376Z,89.22
2024-02-02T02:37:21.192Z,89.41
2024-02-02T02:37:54.254Z,89.08
2024-02-02T02:38:26.124Z,89.17
2024-02-02T02:38:58.006Z,89.01
2024-02-02T02:39:29.928Z,88.77
2024-02-02T02:40:01.784Z,88.60
2024-02-02T02:40:33.591Z,88.87
2024-02-02T02:41:06.224Z,88.54
2024-02-02T02:41:38.169Z,89.04
2024-02-02T02:42:10.282Z,88.96
2024-02-02T02:42:42.149Z,89.29
2024-02-02T02:43:13.968Z,89.32
2024-02-02T02:43:45.788Z,89.25
2024-02-02T02:44:17.586Z,89.61
2024-02-02T02:44:49.507Z,89.59
2024-02-02T02:45:21.417Z,89.69
2024-02-02T02:45:53.332Z,89.75
2024-02-02T02:46:25.148Z,89.73
2024-02-02T02:46:56.993Z,89.92
2024-02-02T02:47:28.971Z,89.84
2024-02-02T02:48:01.675Z,90.03
2024-02-02T02:48:34.385Z,89.94
2024-02-02T02:49:06.677Z,90.00
2024-02-02T02:49:38.652Z,90.38
2024-02-02T02:50:10.742Z,90.33
2024-02-02T02:50:42.592Z,90.45
2024-02-02T02:51:14.554Z,90.69
2024-02-02T02:51:47.049Z,90.56
2024-02-02T02:52:19.411Z,90.37
2024-02-02T02:52:51.222Z,90.83
2024-02-02T02:53:23.062Z,90.75
2024-02-02T02:53:54.902Z,90.88
2024-02-02T02:54:26.776Z,90.78
2024-02-02T02:54:58.626Z,91.25
2024-02-02T02:55:30.488Z,91.03
2024-02-02T02:56:02.305Z,90.82
2024-02-02T02:56:34.453Z,90.94
2024-02-02T02:57:06.408Z,90.74
2024-02-02T02:57:38.270Z,90.82
2024-02-02T02:58:10.099Z,90.86
2024-02-02T02:58:42.111Z,90.46
2024-02-02T02:59:13.916Z,90.66
2024-02-02T02:59:45.734Z,90.82
2024-02-02T03:00:18.540Z,91.18
2024-02-02T03:00:50.492Z,91.00
2024-02-02T03:01:22.961Z,91.07
2024-02-02T03:01:54.774Z,91.64
2024-02-02T03:02:26.606Z,91.19
2024-02-02T03:02:59.202Z,91.64
2024-02-02T03:03:31.156Z,91.23
2024-02-02T03:04:03.149Z,91.35
2024-02-02T03:04:35.134Z,91.13
2024-02-02T03:05:07.374Z,91.34
2024-02-02T03:05:39.587Z,91.18
2024-02-02T03:06:11.589Z,91.18
2024-02-02T03:06:43.670Z,91.39
2024-02-02T03:07:15.606Z,91.55
2024-02-02T03:07:47.497Z,90.97
2024-02-02T03:08:19.360Z,90.86
2024-02-02T03:08:51.233Z,91.13
2024-02-02T03:09:23.071Z,90.60
2024-02-02T03:09:54.913Z,90.82
2024-02-02T03:10:26.735Z,90.48
2024-02-02T03:11:01.610Z,90.34
2024-02-02T03:11:33.607Z,90.24
2024-02-02T03:12:05.718Z,89.89
2024-02-02T03:12:37.731Z,89.83
2024-02-02T03:13:09.557Z,90.21
2024-02-02T03:13:41.409Z,90.01
2024-02-02T03:14:14.736Z,90.02
2024-02-02T03:14:46.557Z,90.19
2024-02-02T03:15:18.459Z,89.67
2024-02-02T03:15:50.310Z,90.06
2024-02-02T03:16:22.163Z,90.36
2024-02-02T03:16:53.942Z,90.08
2024-02-02T03:17:25.725Z,89.75
2024-02-02T03:17:57.628Z,90.01
2024-02-02T03:18:29.665Z,90.05
2024-02-02T03:19:01.742Z,90.05
2024-02-02T03:19:33.682Z,90.07
2024-02-02T03:20:09.191Z,90.24
2024-02-02T03:20:41.081Z,90.25
2024-02-02T03:21:12.964Z,89.70
2024-02-02T03:21:44.823Z,90.17
2024-02-02T03:22:16.607Z,90.28
2024-02-02T03:22:48.427Z,90.22
2024-02-02T03:23:20.270Z,90.12
2024-02-02T03:23:52.188Z,89.94
2024-02-02T03:24:24.047Z,89.51
2024-02-02T03:24:55.955Z,89.62
2024-02-02T03:25:27.732Z,89.28
2024-02-02T03:25:59.518Z,89.15
2024-02-02T03:26:31.411Z,89.44
2024-02-02T03:27:03.401Z,89.44
2024-02-02T03:27:36.040Z,89.27
2024-02-02T03:28:07.877Z,89.15
2024-02-02T03:28:39.773Z,88.88
2024-02-02T03:29:11.697Z,89.04
2024-02-02T03:29:43.913Z,89.42
2024-02-02T03:30:15.834Z,89.28
2024-02-02T03:30:47.730Z,89.05
2024-02-02T03:31:19.707Z,89.14
2024-02-02T03:31:51.523Z,89.05
2024-02-02T03:32:23.350Z,89.35
2024-02-02T03:32:55.338Z,89.31
2024-02-02T03:33:27.428Z,89.42
2024-02-02T03:33:59.464Z,89.42
2024-02-02T03:34:31.482Z,89.67
2024-02-02T03:35:03.379Z,89.67
2024-02-02T03:35:35.363Z,89.78
2024-02-02T03:36:07.317Z,89.88
2024-02-02T03:36:39.230Z,89.89
2024-02-02T03:37:11.107Z,89.64
2024-02-02T03:37:43.041Z,89.86
2024-02-02T03:38:14.812Z,89.49
2024-02-02T03:38:46.624Z,89.57
2024-02-02T03:39:18.883Z,89.80
2024-02-02T03:39:51.032Z,89.25
2024-02-02T03:40:23.211Z,89.44
2024-02-02T03:40:55.015Z,89.34
2024-02-02T03:41:26.780Z,89.72
2024-02-02T03:41:58.562Z,89.33
2024-02-02T03:42:30.465Z,89.96
2024-02-02T03:43:02.771Z,89.86
2024-02-02T03:43:34.918Z,89.33
2024-02-02T03:44:06.775Z,89.07
2024-02-02T03:44:38.592Z,89.27
2024-02-02T03:45:10.589Z,89.04
2024-02-02T03:45:42.454Z,88.66
2024-02-02T03:46:14.313Z,88.98
2024-02-02T03:46:46.170Z,89.00
2024-02-02T03:47:17.985Z,88.82
2024-02-02T03:47:49.914Z,88.74
2024-02-02T03:48:21.842Z,88.52
2024-02-02T03:48:56.259Z,88.55
2024-02-02T03:49:28.231Z,88.78
2024-02-02T03:50:00.226Z,88.91
2024-02-02T03:50:32.095Z,88.93
2024-02-02T03:51:04.008Z,88.88
2024-02-02T03:51:35.967Z,88.98
2024-02-02T03:52:08.781Z,88.87
2024-02-02T03:52:40.735Z,88.73
2024-02-02T03:53:12.585Z,88.51
2024-02-02T03:53:44.452Z,88.35
2024-02-02T03:54:16.309Z,88.31
2024-02-02T03:54:48.132Z,88.34
2024-02-02T03:55:19.900Z,88.46
2024-02-02T03:55:51.719Z,88.76
2024-02-02T03:56:23.534Z,88.71
2024-02-02T03:56:55.817Z,88.58
2024-02-02T03:57:27.738Z,88.50
2024-02-02T03:57:59.563Z,88.52
2024-02-02T03:58:31.395Z,88.71
2024-02-02T03:59:03.218Z,88.21
2024-02-02T03:59:35.081Z,88.24
2024-02-02T04:00:10.993Z,88.28
2024-02-02T04:00:43.022Z,88.29
2024-02-02T04:01:14.928Z,88.18
2024-02-02T04:01:46.823Z,88.27
2024-02-02T04:02:18.689Z,88.25
2024-02-02T04:02:51.625Z,88.47
2024-02-02T04:03:23.541Z,88.33
2024-02-02T04:03:55.527Z,88.34
2024-02-02T04:04:27.451Z,88.35
2024-02-02T04:04:59.279Z,88.60
2024-02-02T04:05:31.281Z,88.45
2024-02-02T04:06:04.206Z,88.22
2024-02-02T04:06:36.022Z,88.13
2024-02-02T04:07:07.878Z,88.66
2024-02-02T04:07:39.903Z,87.83
2024-02-02T04:08:11.788Z,88.48
2024-02-02T04:08:44.302Z,88.03
2024-02-02T04:09:16.315Z,88.03
2024-02-02T04:09:48.139Z,88.17
2024-02-02T04:10:19.909Z,87.93
2024-02-02T04:10:51.701Z,88.00
2024-02-02T04:11:23.493Z,87.97
2024-02-02T04:11:55.393Z,87.91
2024-02-02T04:12:27.308Z,87.93
2024-02-02T04:12:59.391Z,88.44
2024-02-02T04:13:31.222Z,87.92
2024-02-02T04:14:02.980Z,88.16
2024-02-02T04:14:34.915Z,88.41
2024-02-02T04:15:07.715Z,88.59
2024-02-02T04:15:41.039Z,88.14
2024-02-02T04:16:13.223Z,88.05
2024-02-02T04:16:45.046Z,88.42
2024-02-02T04:17:16.969Z,88.62
2024-02-02T04:17:48.752Z,88.50
2024-02-02T04:18:20.804Z,88.39
2024-02-02T04:18:53.068Z,88.87
2024-02-02T04:19:25.146Z,88.50
2024-02-02T04:19:57.099Z,88.66
2024-02-02T04:20:28.897Z,88.42
2024-02-02T04:21:00.788Z,88.65
2024-02-02T04:21:32.697Z,88.50
2024-02-02T04:22:04.587Z,88.63
2024-02-02T04:22:36.444Z,88.38
2024-02-02T04:23:08.325Z,88.39
2024-02-02T04:23:40.107Z,88.66
2024-02-02T04:24:12.040Z,88.60
2024-02-02T04:24:44.976Z,88.42
2024-02-02T04:25:16.750Z,88.31
2024-02-02T04:25:48.531Z,88.50
2024-02-02T04:26:20.318Z,88.22
2024-02-02T04:26:52.198Z,88.80
2024-02-02T04:27:24.079Z,88.47
2024-02-02T04:27:56.018Z,88.41
2024-02-02T04:28:28.220Z,87.93
2024-02-02T04:28:59.998Z,88.29
2024-02-02T04:29:31.749Z,88.15
2024-02-02T04:30:05.039Z,87.82
2024-02-02T04:30:37.143Z,88.15
2024-02-02T04:31:09.079Z,88.15
2024-02-02T04:31:40.921Z,87.39
2024-02-02T04:32:12.803Z,87.85
2024-02-02T04:32:44.704Z,87.97
2024-02-02T04:33:16.873Z,87.63
2024-02-02T04:33:48.872Z,87.84
2024-02-02T04:34:20.871Z,87.80
2024-02-02T04:34:52.899Z,87.89
2024-02-02T04:35:24.919Z,87.88
2024-02-02T04:35:56.789Z,88.07
2024-02-02T04:36:28.823Z,88.23
2024-02-02T04:37:00.657Z,88.42
2024-02-02T04:37:32.412Z,88.30
2024-02-02T04:38:05.418Z,88.61
2024-02-02T04:38:37.245Z,88.22
2024-02-02T04:39:09.766Z,88.44
2024-02-02T04:39:41.556Z,88.43
2024-02-02T04:40:13.522Z,88.14
2024-02-02T04:40:48.650Z,88.64
2024-02-02T04:41:20.470Z,88.13
2024-02-02T04:41:52.312Z,88.12
2024-02-02T04:42:24.171Z,88.15
2024-02-02T04:42:56.139Z,88.14
2024-02-02T04:43:28.198Z,88.00
2024-02-02T04:44:00.053Z,87.60
2024-02-02T04:44:31.861Z,87.63
2024-02-02T04:45:03.932Z,87.43
2024-02-02T04:45:35.919Z,87.29
2024-02-02T04:46:07.728Z,87.51
2024-02-02T04:46:39.557Z,87.84
2024-02-02T04:47:11.394Z,87.21
2024-02-02T04:47:43.304Z,86.88
2024-02-02T04:48:15.522Z,87.18
2024-02-02T04:48:47.664Z,86.97
2024-02-02T04:49:19.715Z,86.90
2024-02-02T04:49:51.649Z,86.91
2024-02-02T04:50:26.768Z,86.85
2024-02-02T04:50:58.876Z,86.77
2024-02-02T04:51:30.801Z,86.62
2024-02-02T04:52:02.739Z,86.63
2024-02-02T04:52:34.998Z,86.79
2024-02-02T04:53:07.720Z,86.78
2024-02-02T04:53:39.547Z,86.56
2024-02-02T04:54:11.640Z,86.84
2024-02-02T04:54:43.531Z,86.84
2024-02-02T04:55:15.470Z,86.96
2024-02-02T04:55:47.256Z,86.97
2024-02-02T04:56:19.101Z,86.99
2024-02-02T04:56:50.896Z,87.46
2024-02-02T04:57:22.708Z,87.72
2024-02-02T04:57:54.549Z,87.56
2024-02-02T04:58:27.204Z,87.66
2024-02-02T04:58:58.982Z,88.46
2024-02-02T04:59:30.821Z,88.36
2024-02-02T05:00:02.712Z,88.84
2024-02-02T05:00:36.711Z,88.45
2024-02-02T05:01:08.841Z,88.32
2024-02-02T05:01:40.879Z,88.13
2024-02-02T05:02:12.851Z,88.72
2024-02-02T05:02:44.640Z,88.19
2024-02-02T05:03:16.512Z,88.40
2024-02-02T05:03:48.463Z,87.99
2024-02-02T05:04:20.479Z,88.38
2024-02-02T05:04:52.600Z,88.61
2024-02-02T05:05:24.458Z,88.27
2024-02-02T05:05:56.437Z,88.39
2024-02-02T05:06:28.338Z,88.62
2024-02-02T05:07:00.990Z,88.91
2024-02-02T05:07:33.209Z,88.69
2024-02-02T05:08:05.499Z,88.88
2024-02-02T05:08:37.321Z,88.47
2024-02-02T05:09:09.337Z,89.08
2024-02-02T05:09:41.147Z,88.90
2024-02-02T05:10:12.996Z,88.54
2024-02-02T05:10:44.942Z,88.52
2024-02-02T05:11:16.863Z,88.70
2024-02-02T05:11:48.676Z,89.11
2024-02-02T05:12:20.537Z,88.70
2024-02-02T05:12:52.436Z,89.08
2024-02-02T05:13:24.290Z,88.70
2024-02-02T05:13:56.214Z,88.87
2024-02-02T05:14:28.042Z,89.00
2024-02-02T05:14:59.916Z,89.11
2024-02-02T05:15:31.909Z,89.16
2024-02-02T05:16:03.942Z,89.34
2024-02-02T05:16:35.821Z,88.83
2024-02-02T05:17:07.678Z,88.89
2024-02-02T05:17:39.540Z,88.77
2024-02-02T05:18:12.110Z,89.13
2024-02-02T05:18:44.360Z,88.96
2024-02-02T05:19:16.307Z,89.20
2024-02-02T05:19:48.211Z,88.58
2024-02-02T05:20:20.025Z,89.14
2024-02-02T05:20:51.958Z,88.70
2024-02-02T05:21:23.786Z,88.92
2024-02-02T05:21:55.883Z,88.51
2024-02-02T05:22:27.778Z,88.93
2024-02-02T05:22:59.913Z,88.71
2024-02-02T05:23:31.779Z,88.92
2024-02-02T05:24:14.742Z,88.84
2024-02-02T05:24:55.457Z,89.36
2024-02-02T05:25:27.822Z,89.09
2024-02-02T05:25:59.671Z,89.29
2024-02-02T05:26:31.612Z,88.74
2024-02-02T05:27:03.810Z,88.67
2024-02-02T05:27:36.223Z,88.78
2024-02-02T05:28:08.134Z,88.51
2024-02-02T05:28:41.560Z,89.00
2024-02-02T05:29:14.039Z,88.72
2024-02-02T05:29:45.974Z,88.43
2024-02-02T05:30:17.863Z,88.25
2024-02-02T05:30:49.711Z,88.25
2024-02-02T05:31:21.564Z,88.17
2024-02-02T05:31:53.392Z,88.15
2024-02-02T05:32:25.373Z,88.26
2024-02-02T05:32:57.452Z,87.97
2024-02-02T05:33:29.589Z,87.90
2024-02-02T05:34:01.570Z,87.82
2024-02-02T05:34:33.581Z,87.71
2024-02-02T05:35:06.029Z,88.17
2024-02-02T05:35:37.901Z,88.30
2024-02-02T05:36:09.735Z,87.99
2024-02-02T05:36:41.604Z,88.29
2024-02-02T05:37:13.510Z,88.19
2024-02-02T05:37:45.313Z,88.50
2024-02-02T05:38:17.131Z,88.30
2024-02-02T05:38:48.979Z,88.36
2024-02-02T05:39:20.838Z,88.64
2024-02-02T05:39:52.661Z,88.75
2024-02-02T05:40:24.528Z,88.62
2024-02-02T05:40:56.346Z,88.74
2024-02-02T05:41:28.181Z,88.64
2024-02-02T05:42:00.528Z,88.62
2024-02-02T05:42:32.553Z,88.16
2024-02-02T05:43:04.605Z,88.93
2024-02-02T05:43:36.470Z,88.68
2024-02-02T05:44:08.328Z,88.24
2024-02-02T05:44:40.164Z,88.55
2024-02-02T05:45:12.112Z,88.57
2024-02-02T05:45:43.970Z,88.29
2024-02-02T05:46:15.794Z,88.40
2024-02-02T05:46:47.717Z,88.46
2024-02-02T05:47:19.545Z,88.34
2024-02-02T05:47:51.943Z,88.49
2024-02-02T05:48:23.922Z,88.58
2024-02-02T05:48:55.983Z,88.63
2024-02-02T05:49:28.090Z,88.68
2024-02-02T05:49:59.995Z,88.71
2024-02-02T05:50:31.882Z,88.68
2024-02-02T05:51:04.028Z,88.79
2024-02-02T05:51:36.027Z,88.37
2024-02-02T05:52:10.194Z,88.60
2024-02-02T05:52:42.198Z,88.77
2024-02-02T05:53:14.540Z,88.61
2024-02-02T05:53:46.630Z,88.20
2024-02-02T05:54:18.608Z,88.26
2024-02-02T05:54:50.464Z,88.36
2024-02-02T05:55:22.336Z,88.52
2024-02-02T05:55:54.110Z,88.41
2024-02-02T05:56:25.878Z,88.30
2024-02-02T05:56:57.868Z,88.50
2024-02-02T05:57:29.749Z,88.40
2024-02-02T05:58:01.698Z,88.30
2024-02-02T05:58:33.733Z,88.48
2024-02-02T05:59:05.613Z,88.30
2024-02-02T05:59:37.416Z,88.51
2024-02-02T06:00:12.036Z,88.74
2024-02-02T06:00:44.053Z,88.38
2024-02-02T06:01:15.936Z,88.25
2024-02-02T06:01:47.736Z,88.33
2024-02-02T06:02:19.505Z,88.55
2024-02-02T06:02:51.318Z,88.74
2024-02-02T06:03:23.192Z,88.74
2024-02-02T06:03:55.354Z,88.09
2024-02-02T06:04:27.500Z,88.09
2024-02-02T06:04:59.303Z,87.96
2024-02-02T06:05:34.073Z,88.43
2024-02-02T06:06:06.069Z,88.35
2024-02-02T06:06:37.921Z,87.85
2024-02-02T06:07:09.834Z,88.36
2024-02-02T06:07:41.827Z,88.37
2024-02-02T06:08:15.819Z,88.63
2024-02-02T06:08:47.590Z,88.72
2024-02-02T06:09:19.386Z,88.60
2024-02-02T06:09:51.196Z,88.65
2024-02-02T06:10:23.061Z,88.65
2024-02-02T06:10:54.890Z,88.33
2024-02-02T06:11:26.704Z,88.67
2024-02-02T06:11:58.697Z,88.48
2024-02-02T06:12:30.575Z,88.64
2024-02-02T06:13:02.401Z,88.65
2024-02-02T06:13:34.563Z,88.56
2024-02-02T06:14:06.458Z,88.78
2024-02-02T06:14:38.306Z,88.41
2024-02-02T06:15:10.297Z,88.89
2024-02-02T06:15:42.227Z,88.38
2024-02-02T06:16:14.082Z,88.74
2024-02-02T06:16:45.898Z,88.59
2024-02-02T06:17:17.749Z,88.81
2024-02-02T06:17:52.668Z,88.94
2024-02-02T06:18:25.545Z,89.12
2024-02-02T06:18:57.569Z,88.97
2024-02-02T06:19:29.689Z,89.62
2024-02-02T06:20:01.775Z,89.34
2024-02-02T06:20:33.957Z,89.69
2024-02-02T06:21:05.947Z,89.60
2024-02-02T06:21:37.954Z,89.52
2024-02-02T06:22:09.875Z,89.61
2024-02-02T06:22:41.710Z,89.85
2024-02-02T06:23:16.405Z,89.69
2024-02-02T06:23:48.196Z,89.51
2024-02-02T06:24:20.114Z,89.42
2024-02-02T06:24:52.052Z,89.65
2024-02-02T06:25:23.923Z,89.75
2024-02-02T06:25:55.720Z,89.41
2024-02-02T06:26:27.762Z,89.09
2024-02-02T06:26:59.617Z,89.18
2024-02-02T06:27:32.259Z,89.51
2024-02-02T06:28:04.289Z,89.03
2024-02-02T06:28:36.165Z,89.24
2024-02-02T06:29:08.153Z,89.13
2024-02-02T06:29:40.014Z,89.31
2024-02-02T06:30:13.053Z,89.22
2024-02-02T06:30:49.426Z,89.10
2024-02-02T06:31:22.984Z,89.16
2024-02-02T06:31:54.829Z,88.90
2024-02-02T06:32:26.770Z,89.08
2024-02-02T06:33:01.474Z,89.36
2024-02-02T06:33:33.672Z,89.34
2024-02-02T06:34:05.717Z,88.98
2024-02-02T06:34:38.538Z,89.60
2024-02-02T06:35:10.369Z,89.25
2024-02-02T06:35:43.180Z,89.31
2024-02-02T06:36:15.112Z,89.55
2024-02-02T06:36:47.010Z,89.45
2024-02-02T06:37:19.835Z,89.20
2024-02-02T06:37:51.620Z,89.09
2024-02-02T06:38:23.450Z,89.29
2024-02-02T06:38:56.815Z,89.19
2024-02-02T06:39:28.760Z,89.44
2024-02-02T06:40:04.765Z,89.75
2024-02-02T06:40:36.616Z,89.12
2024-02-02T06:41:11.750Z,89.45
2024-02-02T06:41:43.809Z,89.27
2024-02-02T06:42:15.852Z,89.83
2024-02-02T06:42:47.749Z,89.62
2024-02-02T06:43:19.603Z,89.56
2024-02-02T06:43:51.475Z,89.63
2024-02-02T06:44:23.337Z,89.76
2024-02-02T06:44:58.215Z,89.95
2024-02-02T06:45:30.645Z,89.66
2024-02-02T06:46:02.505Z,89.46
2024-02-02T06:46:34.561Z,89.57
2024-02-02T06:47:06.935Z,89.85
2024-02-02T06:47:39.884Z,90.02
2024-02-02T06:48:14.173Z,89.98
2024-02-02T06:48:46.231Z,89.88
2024-02-02T06:49:18.269Z,90.03
2024-02-02T06:49:50.270Z,90.22
2024-02-02T06:50:22.280Z,90.14
2024-02-02T06:50:54.220Z,90.23
2024-02-02T06:51:26.144Z,90.16
2024-02-02T06:51:57.957Z,90.46
2024-02-02T06:52:29.862Z,90.46
2024-02-02T06:53:03.158Z,90.36
2024-02-02T06:53:37.063Z,90.20
2024-02-02T06:54:09.489Z,90.25
2024-02-02T06:54:42.462Z,90.41